createdAt,value
2018-06-08T00:01:21.369Z,19.10
2018-06-08T00:03:49.675Z,19.20
2018-06-08T00:06:17.385Z,19.10
2018-06-08T00:08:45.309Z,19.10
2018-06-08T00:11:13.071Z,19.10
2018-06-08T00:13:40.802Z,19.10
2018-06-08T00:16:10.100Z,19.20
2018-06-08T00:18:45.744Z,19.10
2018-06-08T00:21:13.519Z,19.10
2018-06-08T00:23:41.388Z,19.10
2018-06-08T00:26:09.128Z,19.00
2018-06-08T00:28:37.090Z,19.10
2018-06-08T00:31:04.781Z,19.00
2018-06-08T00:33:32.757Z,19.10
2018-06-08T00:36:01.237Z,19.00
2018-06-08T00:38:29.627Z,19.00
2018-06-08T00:40:59.468Z,19.00
2018-06-08T00:43:30.170Z,19.00
2018-06-08T00:46:02.235Z,19.00
2018-06-08T00:48:31.034Z,19.00
2018-06-08T00:51:00.652Z,19.00
2018-06-08T00:53:28.988Z,19.00
2018-06-08T00:55:58.342Z,19.00
2018-06-08T00:58:26.976Z,19.00
2018-06-08T01:00:55.952Z,19.00
2018-06-08T01:03:24.581Z,19.10
2018-06-08T01:05:52.927Z,19.00
2018-06-08T01:08:21.603Z,18.90
2018-06-08T01:10:51.964Z,19.00
2018-06-08T01:13:20.526Z,19.00
2018-06-08T01:15:49.338Z,19.10
2018-06-08T01:18:18.883Z,19.00
2018-06-08T01:20:47.006Z,19.00
2018-06-08T01:23:15.255Z,19.00
2018-06-08T01:25:47.507Z,19.00
2018-06-08T01:28:16.256Z,19.00
2018-06-08T01:30:49.750Z,19.00
2018-06-08T01:33:19.664Z,19.00
2018-06-08T01:35:47.669Z,19.00
2018-06-08T01:38:17.641Z,18.90
2018-06-08T01:40:44.816Z,18.90
2018-06-08T01:43:14.044Z,18.90
2018-06-08T01:45:49.199Z,18.90
2018-06-08T01:48:17.665Z,18.90
2018-06-08T01:50:45.876Z,18.90
2018-06-08T01:53:18.276Z,19.00
2018-06-08T01:55:46.856Z,18.90
2018-06-08T01:58:17.456Z,18.90
2018-06-08T02:00:45.418Z,19.00
2018-06-08T02:03:13.426Z,19.00
2018-06-08T02:05:43.763Z,18.90
2018-06-08T02:08:12.300Z,18.90
2018-06-08T02:10:45.433Z,18.80
2018-06-08T02:13:15.055Z,18.80
2018-06-08T02:15:49.290Z,18.80
2018-06-08T02:18:18.039Z,18.80
2018-06-08T02:20:50.276Z,18.90
2018-06-08T02:23:18.672Z,18.80
2018-06-08T02:25:51.976Z,18.80
2018-06-08T02:28:29.473Z,18.80
2018-06-08T02:30:59.321Z,18.70
2018-06-08T02:33:27.760Z,18.80
2018-06-08T02:35:59.270Z,18.80
2018-06-08T02:38:27.719Z,18.70
2018-06-08T02:40:55.363Z,18.50
2018-06-08T02:43:23.163Z,18.60
2018-06-08T02:45:51.080Z,18.60
2018-06-08T02:48:19.407Z,18.70
2018-06-08T02:50:51.738Z,18.70
2018-06-08T02:53:24.950Z,18.70
2018-06-08T02:55:54.891Z,18.60
2018-06-08T02:58:23.390Z,18.70
2018-06-08T03:00:57.236Z,18.70
2018-06-08T03:03:27.248Z,18.70
2018-06-08T03:05:55.207Z,18.70
2018-06-08T03:08:26.847Z,18.70
2018-06-08T03:10:58.738Z,18.70
2018-06-08T03:13:27.239Z,18.70
2018-06-08T03:15:56.534Z,18.70
2018-06-08T03:18:26.874Z,18.70
2018-06-08T03:20:57.662Z,18.70
2018-06-08T03:23:28.015Z,18.70
2018-06-08T03:25:57.229Z,18.70
2018-06-08T03:28:29.825Z,18.80
2018-06-08T03:33:59.351Z,18.80
2018-06-08T03:36:27.465Z,18.80
2018-06-08T03:38:56.684Z,18.80
2018-06-08T03:41:28.305Z,18.70
2018-06-08T03:43:57.942Z,18.80
2018-06-08T03:46:27.487Z,18.80
2018-06-08T03:48:59.096Z,18.80
2018-06-08T03:54:30.003Z,18.80
2018-06-08T03:56:57.659Z,18.90
2018-06-08T03:59:25.461Z,18.90
2018-06-08T04:01:53.178Z,18.90
2018-06-08T04:04:21.922Z,18.90
2018-06-08T04:06:49.886Z,18.90
2018-06-08T04:09:17.838Z,18.90
2018-06-08T04:11:45.675Z,18.90
2018-06-08T04:14:14.290Z,18.90
2018-06-08T04:16:42.301Z,18.90
2018-06-08T04:19:10.331Z,19.00
2018-06-08T04:21:38.530Z,19.00
2018-06-08T04:24:06.171Z,19.00
2018-06-08T04:26:35.417Z,19.00
2018-06-08T04:29:03.486Z,19.00
2018-06-08T04:31:43.880Z,19.00
2018-06-08T04:36:59.336Z,19.00
2018-06-08T04:39:27.917Z,19.00
2018-06-08T04:41:57.450Z,19.00
2018-06-08T04:44:25.477Z,19.00
2018-06-08T04:46:57.306Z,19.10
2018-06-08T04:49:27.642Z,19.10
2018-06-08T04:51:55.903Z,19.10
2018-06-08T04:54:24.299Z,19.10
2018-06-08T04:56:53.445Z,19.10
2018-06-08T04:59:26.434Z,19.10
2018-06-08T05:01:54.762Z,19.10
2018-06-08T05:04:22.499Z,19.20
2018-06-08T05:06:55.186Z,19.20
2018-06-08T05:09:24.449Z,19.20
2018-06-08T05:11:53.087Z,19.30
2018-06-08T05:14:21.043Z,19.30
2018-06-08T05:16:48.643Z,19.30
2018-06-08T05:19:16.667Z,19.30
2018-06-08T05:21:44.345Z,19.40
2018-06-08T05:24:11.958Z,19.40
2018-06-08T05:26:40.561Z,19.50
2018-06-08T05:29:08.314Z,19.50
2018-06-08T05:31:37.022Z,19.60
2018-06-08T05:34:07.821Z,19.70
2018-06-08T05:36:34.926Z,19.70
2018-06-08T05:39:02.190Z,19.80
2018-06-08T05:41:30.166Z,19.80
2018-06-08T05:43:58.054Z,19.80
2018-06-08T05:46:25.818Z,19.80
2018-06-08T05:48:54.027Z,19.80
2018-06-08T05:51:21.630Z,19.90
2018-06-08T05:53:52.843Z,19.90
2018-06-08T05:56:21.011Z,20.00
2018-06-08T05:58:49.151Z,20.10
2018-06-08T06:01:17.614Z,20.10
2018-06-08T06:03:45.223Z,20.10
2018-06-08T06:06:12.991Z,20.10
2018-06-08T06:08:40.885Z,20.20
2018-06-08T06:11:09.375Z,20.20
2018-06-08T06:13:36.946Z,20.20
2018-06-08T06:16:04.867Z,20.30
2018-06-08T06:18:33.269Z,20.20
2018-06-08T06:21:01.286Z,20.10
2018-06-08T06:23:28.950Z,20.10
2018-06-08T06:25:56.794Z,20.30
2018-06-08T06:28:24.404Z,20.40
2018-06-08T06:30:52.102Z,20.40
2018-06-08T06:33:20.316Z,20.40
2018-06-08T06:35:48.124Z,20.50
2018-06-08T06:38:15.702Z,20.60
2018-06-08T06:40:43.377Z,20.60
2018-06-08T06:43:11.354Z,20.70
2018-06-08T06:45:39.121Z,20.70
2018-06-08T06:48:07.028Z,20.80
2018-06-08T06:50:34.546Z,20.90
2018-06-08T06:53:02.638Z,20.90
2018-06-08T06:55:30.519Z,21.00
2018-06-08T06:57:58.393Z,21.00
2018-06-08T07:00:26.039Z,21.10
2018-06-08T07:02:53.755Z,21.20
2018-06-08T07:05:23.432Z,21.40
2018-06-08T07:07:51.140Z,21.50
2018-06-08T07:10:19.012Z,21.70
2018-06-08T07:12:46.809Z,21.80
2018-06-08T07:15:14.515Z,21.70
2018-06-08T07:17:42.204Z,21.80
2018-06-08T07:20:09.732Z,21.90
2018-06-08T07:22:38.299Z,21.90
2018-06-08T07:25:05.999Z,21.90
2018-06-08T07:27:34.156Z,22.00
2018-06-08T07:30:01.850Z,22.00
2018-06-08T07:32:29.533Z,22.10
2018-06-08T07:34:57.331Z,22.10
2018-06-08T07:37:25.075Z,22.20
2018-06-08T07:39:53.134Z,22.30
2018-06-08T07:42:21.138Z,22.40
2018-06-08T07:44:48.823Z,22.30
2018-06-08T07:47:16.504Z,22.40
2018-06-08T07:49:44.252Z,22.60
2018-06-08T07:52:11.804Z,22.60
2018-06-08T07:54:39.824Z,22.70
2018-06-08T07:57:07.523Z,22.70
2018-06-08T07:59:35.140Z,22.80
2018-06-08T08:02:02.822Z,22.80
2018-06-08T08:04:30.581Z,23.00
2018-06-08T08:06:58.217Z,22.90
2018-06-08T08:09:26.465Z,22.90
2018-06-08T08:11:54.045Z,22.80
2018-06-08T08:14:21.696Z,22.80
2018-06-08T08:16:49.453Z,22.90
2018-06-08T08:19:17.130Z,22.90
2018-06-08T08:21:44.758Z,22.90
2018-06-08T08:24:12.447Z,22.90
2018-06-08T08:26:40.033Z,22.90
2018-06-08T08:29:07.770Z,22.90
2018-06-08T08:31:35.401Z,23.00
2018-06-08T08:34:03.096Z,23.10
2018-06-08T08:36:30.865Z,23.10
2018-06-08T08:38:58.544Z,23.20
2018-06-08T08:41:26.364Z,23.30
2018-06-08T08:43:54.462Z,23.00
2018-06-08T08:46:22.125Z,23.20
2018-06-08T08:48:49.888Z,23.30
2018-06-08T08:51:17.749Z,23.40
2018-06-08T08:53:45.590Z,23.50
2018-06-08T08:56:13.259Z,23.70
2018-06-08T08:58:41.517Z,23.80
2018-06-08T09:01:09.212Z,23.80
2018-06-08T09:03:36.866Z,23.90
2018-06-08T09:06:04.659Z,23.90
2018-06-08T09:08:32.577Z,24.00
2018-06-08T09:11:00.287Z,24.10
2018-06-08T09:13:27.930Z,24.00
2018-06-08T09:15:55.609Z,23.80
2018-06-08T09:18:23.239Z,23.90
2018-06-08T09:20:50.818Z,24.00
2018-06-08T09:23:18.395Z,23.80
2018-06-08T09:25:46.123Z,23.80
2018-06-08T09:28:13.713Z,23.80
2018-06-08T09:30:42.408Z,24.00
2018-06-08T09:33:10.121Z,24.20
2018-06-08T09:35:37.690Z,24.30
2018-06-08T09:38:05.360Z,24.40
2018-06-08T09:40:35.227Z,24.40
2018-06-08T09:43:03.731Z,24.60
2018-06-08T09:45:31.372Z,24.60
2018-06-08T09:47:59.136Z,24.70
2018-06-08T09:50:26.955Z,24.60
2018-06-08T09:52:54.713Z,24.50
2018-06-08T09:55:22.773Z,24.50
2018-06-08T09:57:50.439Z,24.70
2018-06-08T10:00:23.659Z,24.80
2018-06-08T10:02:51.276Z,25.00
2018-06-08T10:05:18.926Z,25.00
2018-06-08T10:07:46.457Z,25.20
2018-06-08T10:10:14.179Z,25.30
2018-06-08T10:12:42.553Z,25.40
2018-06-08T10:15:10.493Z,25.40
2018-06-08T10:17:38.328Z,25.50
2018-06-08T10:20:06.272Z,25.50
2018-06-08T10:22:33.875Z,25.20
2018-06-08T10:25:01.460Z,25.00
2018-06-08T10:27:29.111Z,25.00
2018-06-08T10:29:56.710Z,24.90
2018-06-08T10:32:23.994Z,25.10
2018-06-08T10:34:51.067Z,25.40
2018-06-08T10:37:18.140Z,25.50
2018-06-08T10:39:45.174Z,25.80
2018-06-08T10:42:12.159Z,25.90
2018-06-08T10:44:39.257Z,26.10
2018-06-08T10:47:06.263Z,26.30
2018-06-08T10:49:33.385Z,26.40
2018-06-08T10:52:00.357Z,26.60
2018-06-08T10:54:27.370Z,26.50
2018-06-08T10:56:54.400Z,26.70
2018-06-08T10:59:21.393Z,26.80
2018-06-08T11:01:48.387Z,27.00
2018-06-08T11:04:16.659Z,27.00
2018-06-08T11:06:43.724Z,27.10
2018-06-08T11:09:10.698Z,27.00
2018-06-08T11:11:38.398Z,26.80
2018-06-08T11:14:06.145Z,26.80
2018-06-08T11:16:33.967Z,27.00
2018-06-08T11:19:01.037Z,27.10
2018-06-08T11:21:28.322Z,27.30
2018-06-08T11:23:55.324Z,27.50
2018-06-08T11:26:22.554Z,27.90
2018-06-08T11:28:49.789Z,28.00
2018-06-08T11:31:17.911Z,28.30
2018-06-08T11:33:44.990Z,28.40
2018-06-08T11:36:11.986Z,28.40
2018-06-08T11:38:39.098Z,28.50
2018-06-08T11:41:06.058Z,28.50
2018-06-08T11:43:33.838Z,28.50
2018-06-08T11:46:00.811Z,28.70
2018-06-08T11:48:27.877Z,28.80
2018-06-08T11:50:54.899Z,28.70
2018-06-08T11:53:21.962Z,28.60
2018-06-08T11:55:48.979Z,28.50
2018-06-08T11:58:16.069Z,28.40
2018-06-08T12:00:43.116Z,28.70
2018-06-08T12:03:10.137Z,29.20
2018-06-08T12:05:37.243Z,29.60
2018-06-08T12:08:04.670Z,29.50
2018-06-08T12:10:31.740Z,28.70
2018-06-08T12:12:58.805Z,29.00
2018-06-08T12:15:25.779Z,29.60
2018-06-08T12:17:52.741Z,29.70
2018-06-08T12:20:19.860Z,29.60
2018-06-08T12:22:46.815Z,29.50
2018-06-08T12:25:14.243Z,29.40
2018-06-08T12:27:41.330Z,29.20
2018-06-08T12:30:08.319Z,29.30
2018-06-08T12:32:35.303Z,29.30
2018-06-08T12:35:03.308Z,29.10
2018-06-08T12:37:30.330Z,28.90
2018-06-08T12:39:57.520Z,28.80
2018-06-08T12:42:24.574Z,28.90
2018-06-08T12:44:51.584Z,28.90
2018-06-08T12:47:18.662Z,28.50
2018-06-08T12:49:45.630Z,28.30
2018-06-08T12:52:12.852Z,28.10
2018-06-08T12:54:39.815Z,27.80
2018-06-08T12:57:07.042Z,28.10
2018-06-08T12:59:34.093Z,28.00
2018-06-08T13:02:01.058Z,27.90
2018-06-08T13:04:28.172Z,28.10
2018-06-08T13:06:55.158Z,28.70
2018-06-08T13:09:22.189Z,29.40
2018-06-08T13:11:49.317Z,29.80
2018-06-08T13:14:16.482Z,30.20
2018-06-08T13:16:43.756Z,30.30
2018-06-08T13:19:10.858Z,30.00
2018-06-08T13:21:37.882Z,30.30
2018-06-08T13:24:05.173Z,30.00
2018-06-08T13:26:33.053Z,29.70
2018-06-08T13:29:01.271Z,30.10
2018-06-08T13:31:28.433Z,29.90
2018-06-08T13:33:55.849Z,29.70
2018-06-08T13:36:23.198Z,29.70
2018-06-08T13:38:50.358Z,29.70
2018-06-08T13:41:17.369Z,29.80
2018-06-08T13:43:44.481Z,29.70
2018-06-08T13:46:17.058Z,29.80
2018-06-08T13:48:44.287Z,29.90
2018-06-08T13:51:11.424Z,30.00
2018-06-08T13:53:39.226Z,29.00
2018-06-08T13:56:06.346Z,29.20
2018-06-08T13:58:33.848Z,29.60
2018-06-08T14:01:00.853Z,29.70
2018-06-08T14:03:28.059Z,29.80
2018-06-08T14:05:55.172Z,29.50
2018-06-08T14:08:22.277Z,29.50
2018-06-08T14:10:49.354Z,29.40
2018-06-08T14:13:16.384Z,29.40
2018-06-08T14:15:43.441Z,29.20
2018-06-08T14:18:10.498Z,29.00
2018-06-08T14:20:37.500Z,28.90
2018-06-08T14:23:05.015Z,28.80
2018-06-08T14:25:32.641Z,28.90
2018-06-08T14:28:00.274Z,28.90
2018-06-08T14:30:27.361Z,28.70
2018-06-08T14:32:54.513Z,28.90
2018-06-08T14:35:21.632Z,29.00
2018-06-08T14:37:48.868Z,29.00
2018-06-08T14:40:15.927Z,29.00
2018-06-08T14:42:45.015Z,29.00
2018-06-08T14:45:12.809Z,28.90
2018-06-08T14:47:39.904Z,28.40
2018-06-08T14:50:07.071Z,28.30
2018-06-08T14:52:34.151Z,28.20
2018-06-08T14:55:01.608Z,28.20
2018-06-08T14:57:28.817Z,28.00
2018-06-08T14:59:55.963Z,28.00
2018-06-08T15:02:22.973Z,27.90
2018-06-08T15:04:49.992Z,27.80
2018-06-08T15:07:17.027Z,27.80
2018-06-08T15:09:44.088Z,27.80
2018-06-08T15:12:11.883Z,27.80
2018-06-08T15:14:39.693Z,27.70
2018-06-08T15:17:08.315Z,27.80
2018-06-08T15:19:38.276Z,27.70
2018-06-08T15:22:06.015Z,27.60
2018-06-08T15:24:33.636Z,27.60
2018-06-08T15:27:01.361Z,27.60
2018-06-08T15:29:29.208Z,27.60
2018-06-08T15:31:56.936Z,27.50
2018-06-08T15:34:24.654Z,27.50
2018-06-08T15:36:52.614Z,27.50
2018-06-08T15:39:23.824Z,27.50
2018-06-08T15:41:51.547Z,27.40
2018-06-08T15:44:19.406Z,27.20
2018-06-08T15:46:47.004Z,27.10
2018-06-08T15:49:14.711Z,27.10
2018-06-08T15:51:43.256Z,27.10
2018-06-08T15:54:10.969Z,27.10
2018-06-08T15:56:38.529Z,27.20
2018-06-08T15:59:07.188Z,27.10
2018-06-08T16:01:35.016Z,27.10
2018-06-08T16:04:02.702Z,27.10
2018-06-08T16:06:30.919Z,27.10
2018-06-08T16:08:58.654Z,27.10
2018-06-08T16:11:28.448Z,27.10
2018-06-08T16:13:56.290Z,27.10
2018-06-08T16:16:24.000Z,27.10
2018-06-08T16:18:51.759Z,27.10
2018-06-08T16:21:19.420Z,27.10
2018-06-08T16:23:47.114Z,27.10
2018-06-08T16:26:14.842Z,27.10
2018-06-08T16:28:42.495Z,27.10
2018-06-08T16:31:10.175Z,27.10
2018-06-08T16:33:38.843Z,27.20
2018-06-08T16:36:06.652Z,27.20
2018-06-08T16:38:34.323Z,27.30
2018-06-08T16:41:02.329Z,27.30
2018-06-08T16:43:30.016Z,27.30
2018-06-08T16:45:57.916Z,27.40
2018-06-08T16:48:25.843Z,27.40
2018-06-08T16:50:54.155Z,27.40
2018-06-08T16:53:21.854Z,27.50
2018-06-08T16:55:50.727Z,27.50
2018-06-08T16:58:18.645Z,27.50
2018-06-08T17:00:46.878Z,27.50
2018-06-08T17:03:15.981Z,27.50
2018-06-08T17:05:43.781Z,27.40
2018-06-08T17:08:11.874Z,27.40
2018-06-08T17:10:39.722Z,27.30
2018-06-08T17:13:07.551Z,27.30
2018-06-08T17:15:35.291Z,27.30
2018-06-08T17:18:03.044Z,27.20
2018-06-08T17:20:30.805Z,27.10
2018-06-08T17:22:57.854Z,27.10
2018-06-08T17:25:24.885Z,27.10
2018-06-08T17:27:52.027Z,27.10
2018-06-08T17:30:19.881Z,27.10
2018-06-08T17:32:47.185Z,27.00
2018-06-08T17:35:14.244Z,26.90
2018-06-08T17:37:41.312Z,26.80
2018-06-08T17:40:09.484Z,26.70
2018-06-08T17:42:37.228Z,26.70
2018-06-08T17:45:05.046Z,26.60
2018-06-08T17:47:32.105Z,26.50
2018-06-08T17:49:59.486Z,26.50
2018-06-08T17:52:26.534Z,26.30
2018-06-08T17:54:55.282Z,26.20
2018-06-08T17:57:22.547Z,26.20
2018-06-08T17:59:50.486Z,26.20
2018-06-08T18:02:17.661Z,26.20
2018-06-08T18:04:45.064Z,26.10
2018-06-08T18:07:14.237Z,26.00
2018-06-08T18:09:41.537Z,26.00
2018-06-08T18:12:09.259Z,26.00
2018-06-08T18:14:36.964Z,26.10
2018-06-08T18:17:05.304Z,26.10
2018-06-08T18:19:33.544Z,26.00
2018-06-08T18:22:01.276Z,26.00
2018-06-08T18:24:28.958Z,25.90
2018-06-08T18:26:56.707Z,25.90
2018-06-08T18:29:24.674Z,25.80
2018-06-08T18:31:51.962Z,25.40
2018-06-08T18:34:19.074Z,25.10
2018-06-08T18:36:46.426Z,24.90
2018-06-08T18:39:14.005Z,24.90
2018-06-08T18:41:40.979Z,24.80
2018-06-08T18:44:08.203Z,24.60
2018-06-08T18:46:35.354Z,24.60
2018-06-08T18:49:04.439Z,24.50
2018-06-08T18:51:32.477Z,24.50
2018-06-08T18:54:05.845Z,24.30
2018-06-08T18:56:34.413Z,24.20
2018-06-08T18:59:02.195Z,24.00
2018-06-08T19:01:29.283Z,24.00
2018-06-08T19:03:57.805Z,24.00
2018-06-08T19:06:24.838Z,24.00
2018-06-08T19:08:52.511Z,24.00
2018-06-08T19:11:19.504Z,24.00
2018-06-08T19:13:46.495Z,23.90
2018-06-08T19:16:13.806Z,23.80
2018-06-08T19:18:43.067Z,23.70
2018-06-08T19:21:10.292Z,23.60
2018-06-08T19:23:43.804Z,23.50
2018-06-08T19:26:11.590Z,23.50
2018-06-08T19:28:39.620Z,23.30
2018-06-08T19:31:07.650Z,23.40
2018-06-08T19:33:35.837Z,23.40
2018-06-08T19:36:07.069Z,23.50
2018-06-08T19:38:35.042Z,23.50
2018-06-08T19:41:06.369Z,23.40
2018-06-08T19:43:33.365Z,23.20
2018-06-08T19:46:00.511Z,23.10
2018-06-08T19:48:28.579Z,23.00
2018-06-08T19:50:55.655Z,23.00
2018-06-08T19:53:25.060Z,23.10
2018-06-08T19:55:56.833Z,22.90
2018-06-08T19:58:26.921Z,22.90
2018-06-08T20:03:44.014Z,23.00
2018-06-08T20:06:15.504Z,22.90
2018-06-08T20:08:42.598Z,22.90
2018-06-08T20:11:13.400Z,22.80
2018-06-08T20:13:41.666Z,22.60
2018-06-08T20:16:08.815Z,22.60
2018-06-08T20:18:36.949Z,22.60
2018-06-08T20:21:17.765Z,22.50
2018-06-08T20:23:44.978Z,22.50
2018-06-08T20:26:11.975Z,22.40
2018-06-08T20:28:39.067Z,22.40
2018-06-08T20:31:06.154Z,22.40
2018-06-08T20:33:33.198Z,22.30
2018-06-08T20:36:13.752Z,22.30
2018-06-08T20:38:40.689Z,22.30
2018-06-08T20:41:07.654Z,22.20
2018-06-08T20:43:35.156Z,22.20
2018-06-08T20:46:09.943Z,22.10
2018-06-08T20:48:38.053Z,22.00
2018-06-08T20:51:05.942Z,21.80
2018-06-08T20:53:33.035Z,21.60
2018-06-08T20:56:00.298Z,21.70
2018-06-08T20:58:28.306Z,21.70
2018-06-08T21:00:55.974Z,21.70
2018-06-08T21:03:23.056Z,21.70
2018-06-08T21:05:50.101Z,21.70
2018-06-08T21:08:17.085Z,21.70
2018-06-08T21:10:44.218Z,21.70
2018-06-08T21:13:11.218Z,21.70
2018-06-08T21:15:38.402Z,21.70
2018-06-08T21:18:05.396Z,21.70
2018-06-08T21:20:32.509Z,21.60
2018-06-08T21:22:59.543Z,21.50
2018-06-08T21:25:28.722Z,21.50
2018-06-08T21:27:55.945Z,21.40
2018-06-08T21:30:23.356Z,21.50
2018-06-08T21:32:50.630Z,21.50
2018-06-08T21:35:17.729Z,21.50
2018-06-08T21:37:44.854Z,21.40
2018-06-08T21:40:12.264Z,21.40
2018-06-08T21:42:39.389Z,21.30
2018-06-08T21:45:06.693Z,21.30
2018-06-08T21:47:33.737Z,21.30
2018-06-08T21:50:00.918Z,21.30
2018-06-08T21:52:28.069Z,21.30
2018-06-08T21:54:55.235Z,21.30
2018-06-08T21:57:22.232Z,21.30
2018-06-08T21:59:49.261Z,21.30
2018-06-08T22:02:16.299Z,21.30
2018-06-08T22:04:43.401Z,21.30
2018-06-08T22:07:10.462Z,21.30
2018-06-08T22:09:37.435Z,21.30
2018-06-08T22:12:04.840Z,21.30
2018-06-08T22:14:31.842Z,21.30
2018-06-08T22:16:58.892Z,21.30
2018-06-08T22:19:26.152Z,21.20
2018-06-08T22:21:53.782Z,21.20
2018-06-08T22:24:20.781Z,21.20
2018-06-08T22:26:47.800Z,21.20
2018-06-08T22:29:15.042Z,21.10
2018-06-08T22:31:42.110Z,21.10
2018-06-08T22:34:09.191Z,21.10
2018-06-08T22:36:36.390Z,21.10
2018-06-08T22:39:05.176Z,21.10
2018-06-08T22:41:32.235Z,21.00
2018-06-08T22:43:59.700Z,21.00
2018-06-08T22:46:26.987Z,21.00
2018-06-08T22:48:54.073Z,20.90
2018-06-08T22:51:21.078Z,20.90
2018-06-08T22:53:48.130Z,20.90
2018-06-08T22:56:15.187Z,20.80
2018-06-08T22:58:42.551Z,20.90
2018-06-08T23:01:09.523Z,20.80
2018-06-08T23:03:36.764Z,20.80
2018-06-08T23:06:04.707Z,20.80
2018-06-08T23:08:31.724Z,20.70
2018-06-08T23:10:58.870Z,20.70
2018-06-08T23:13:26.078Z,20.60
2018-06-08T23:15:53.108Z,20.60
2018-06-08T23:18:20.699Z,20.60
2018-06-08T23:49:32.977Z,20.30
2018-06-08T23:52:08.377Z,20.30
2018-06-08T23:57:32.777Z,20.30
